createdAt,value
2023-05-14T00:00:29.283Z,97413.56
2023-05-14T00:04:32.273Z,97414.19
2023-05-14T00:08:36.301Z,97408.63
2023-05-14T00:12:38.900Z,97398.72
2023-05-14T00:16:41.468Z,97397.47
2023-05-14T00:20:44.383Z,97394.81
2023-05-14T00:24:48.289Z,97397.75
2023-05-14T00:28:50.834Z,97393.81
2023-05-14T00:32:53.489Z,97397.13
2023-05-14T00:36:56.097Z,97393.38
2023-05-14T00:41:00.016Z,97389.22
2023-05-14T00:45:02.616Z,97392.78
2023-05-14T00:49:05.469Z,97397.94
2023-05-14T00:53:10.336Z,97397.13
2023-05-14T00:57:14.437Z,97399.59
2023-05-14T01:01:18.184Z,97387.16
2023-05-14T01:05:21.156Z,97387.16
2023-05-14T01:09:30.572Z,97387.34
2023-05-14T01:13:42.573Z,97390.84
2023-05-14T01:18:07.682Z,97390.03
2023-05-14T01:22:12.361Z,97385.44
2023-05-14T01:26:14.944Z,97375.25
2023-05-14T01:30:23.045Z,97382.50
2023-05-14T01:34:29.393Z,97374.19
2023-05-14T01:38:34.471Z,97388.31
2023-05-14T01:42:37.423Z,97377.94
2023-05-14T01:46:40.283Z,97381.47
2023-05-14T01:50:42.999Z,97378.16
2023-05-14T01:54:46.906Z,97374.84
2023-05-14T01:58:49.465Z,97364.28
2023-05-14T02:02:52.322Z,97370.13
2023-05-14T02:06:54.993Z,97361.19
2023-05-14T02:10:59.210Z,97351.22
2023-05-14T02:15:02.065Z,97351.63
2023-05-14T02:19:04.760Z,97360.34
2023-05-14T02:23:07.509Z,97356.81
2023-05-14T02:27:13.098Z,97354.78
2023-05-14T02:31:17.605Z,97349.81
2023-05-14T02:35:20.298Z,97346.03
2023-05-14T02:39:22.927Z,97337.34
2023-05-14T02:43:26.940Z,97332.13
2023-05-14T02:47:29.573Z,97322.19
2023-05-14T02:51:32.140Z,97330.31
2023-05-14T02:55:34.716Z,97333.63
2023-05-14T02:59:38.691Z,97319.50
2023-05-14T03:03:41.911Z,97320.78
2023-05-14T03:07:45.008Z,97326.63
2023-05-14T03:11:47.711Z,97315.44
2023-05-14T03:15:54.826Z,97322.03
2023-05-14T03:19:57.666Z,97318.72
2023-05-14T03:24:01.093Z,97312.06
2023-05-14T03:28:04.216Z,97314.56
2023-05-14T03:32:08.745Z,97316.03
2023-05-14T03:36:11.344Z,97319.13
2023-05-14T03:40:14.089Z,97314.97
2023-05-14T03:44:16.690Z,97312.47
2023-05-14T03:48:21.145Z,97311.22
2023-05-14T03:52:23.800Z,97319.53
2023-05-14T03:56:26.685Z,97311.44
2023-05-14T04:00:29.446Z,97306.22
2023-05-14T04:04:33.499Z,97299.78
2023-05-14T04:08:36.257Z,97311.38
2023-05-14T04:12:38.938Z,97295.59
2023-05-14T04:16:41.575Z,97302.28
2023-05-14T04:20:45.525Z,97298.72
2023-05-14T04:24:48.142Z,97297.50
2023-05-14T04:28:50.768Z,97314.94
2023-05-14T04:32:53.596Z,97311.00
2023-05-14T04:36:57.551Z,97306.84
2023-05-14T04:41:00.287Z,97308.13
2023-05-14T04:45:05.413Z,97310.00
2023-05-14T04:49:08.113Z,97307.13
2023-05-14T04:53:12.354Z,97310.88
2023-05-14T04:57:14.927Z,97306.69
2023-05-14T05:01:17.584Z,97303.38
2023-05-14T05:05:20.657Z,97304.84
2023-05-14T05:09:24.690Z,97309.16
2023-05-14T05:13:27.348Z,97310.81
2023-05-14T05:17:30.957Z,97307.91
2023-05-14T05:21:33.758Z,97319.94
2023-05-14T05:25:37.735Z,97305.59
2023-05-14T05:29:40.287Z,97309.50
2023-05-14T05:33:42.916Z,97299.13
2023-05-14T05:37:46.065Z,97310.69
2023-05-14T05:41:49.968Z,97307.31
2023-05-14T05:45:52.546Z,97308.91
2023-05-14T05:49:55.385Z,97306.75
2023-05-14T05:53:58.812Z,97300.88
2023-05-14T05:58:02.802Z,97305.97
2023-05-14T06:02:05.933Z,97308.31
2023-05-14T06:06:08.995Z,97306.88
2023-05-14T06:10:11.945Z,97308.44
2023-05-14T06:14:15.896Z,97301.50
2023-05-14T06:18:18.492Z,97306.63
2023-05-14T06:22:21.076Z,97309.03
2023-05-14T06:26:24.354Z,97305.16
2023-05-14T06:30:28.380Z,97308.63
2023-05-14T06:34:31.227Z,97315.00
2023-05-14T06:38:33.784Z,97319.84
2023-05-14T06:42:36.342Z,97316.44
2023-05-14T06:46:40.279Z,97318.25
2023-05-14T06:50:42.846Z,97313.34
2023-05-14T06:54:45.527Z,97313.84
2023-05-14T06:58:48.116Z,97307.03
2023-05-14T07:02:52.116Z,97316.28
2023-05-14T07:06:54.797Z,97313.13
2023-05-14T07:10:58.358Z,97315.16
2023-05-14T07:15:00.922Z,97319.19
2023-05-14T07:19:04.848Z,97301.50
2023-05-14T07:23:07.439Z,97296.88
2023-05-14T07:27:10.321Z,97292.63
2023-05-14T07:31:12.891Z,97292.53
2023-05-14T07:35:17.192Z,97283.53
2023-05-14T07:39:19.850Z,97294.53
2023-05-14T07:43:22.421Z,97293.94
2023-05-14T07:47:25.066Z,97287.78
2023-05-14T07:51:29.251Z,97285.91
2023-05-14T07:55:31.852Z,97288.13
2023-05-14T07:59:34.464Z,97282.78
2023-05-14T08:03:37.409Z,97263.34
2023-05-14T08:07:41.496Z,97258.84
2023-05-14T08:11:44.162Z,97254.19
2023-05-14T08:15:47.325Z,97251.06
2023-05-14T08:19:49.932Z,97241.06
2023-05-14T08:23:53.973Z,97252.50
2023-05-14T08:27:56.537Z,97243.16
2023-05-14T08:32:00.318Z,97239.50
2023-05-14T08:36:07.342Z,97238.47
2023-05-14T08:40:12.631Z,97231.19
2023-05-14T08:44:19.379Z,97227.06
2023-05-14T08:48:24.050Z,97229.22
2023-05-14T08:52:26.901Z,97227.41
2023-05-14T08:56:33.929Z,97224.75
2023-05-14T09:00:37.294Z,97217.56
2023-05-14T09:04:41.004Z,97204.72
2023-05-14T09:08:43.636Z,97220.41
2023-05-14T09:12:48.288Z,97221.16
2023-05-14T09:16:52.363Z,97217.28
2023-05-14T09:20:55.319Z,97202.25
2023-05-14T09:25:05.910Z,97196.22
2023-05-14T09:29:09.909Z,97198.47
2023-05-14T09:33:12.526Z,97212.72
2023-05-14T09:37:15.115Z,97199.13
2023-05-14T09:41:17.751Z,97186.13
2023-05-14T09:45:21.678Z,97191.13
2023-05-14T09:49:25.475Z,97186.56
2023-05-14T09:53:28.179Z,97179.34
2023-05-14T09:57:30.925Z,97176.59
2023-05-14T10:01:35.481Z,97176.03
2023-05-14T10:05:41.009Z,97164.13
2023-05-14T10:09:45.239Z,97168.59
2023-05-14T10:13:52.969Z,97160.91
2023-05-14T10:18:02.723Z,97158.75
2023-05-14T10:22:08.070Z,97151.91
2023-05-14T10:26:11.858Z,97149.97
2023-05-14T10:30:15.251Z,97156.25
2023-05-14T10:34:40.588Z,97145.56
2023-05-14T10:38:43.202Z,97142.56
2023-05-14T10:42:47.649Z,97138.97
2023-05-14T10:46:50.250Z,97143.56
2023-05-14T10:50:54.882Z,97142.75
2023-05-14T10:55:02.884Z,97138.97
2023-05-14T10:59:07.815Z,97140.03
2023-05-14T11:03:13.112Z,97134.84
2023-05-14T11:07:17.969Z,97121.44
2023-05-14T11:11:20.655Z,97118.66
2023-05-14T11:15:24.657Z,97117.94
2023-05-14T11:19:28.245Z,97101.66
2023-05-14T11:23:32.576Z,97104.28
2023-05-14T11:27:36.649Z,97097.94
2023-05-14T11:31:39.507Z,97102.69
2023-05-14T11:35:45.298Z,97100.06
2023-05-14T11:39:50.633Z,97097.28
2023-05-14T11:43:53.252Z,97098.28
2023-05-14T11:47:56.034Z,97089.88
2023-05-14T11:51:59.388Z,97079.06
2023-05-14T11:56:03.427Z,97079.56
2023-05-14T12:00:10.260Z,97075.41
2023-05-14T12:04:13.436Z,97068.03
2023-05-14T12:08:22.242Z,97074.28
2023-05-14T12:12:26.141Z,97067.16
2023-05-14T12:16:33.979Z,97061.47
2023-05-14T12:20:38.170Z,97050.53
2023-05-14T12:24:41.159Z,97039.63
2023-05-14T12:28:48.985Z,97037.94
2023-05-14T12:32:52.877Z,97029.47
2023-05-14T12:36:56.224Z,97025.91
2023-05-14T12:40:58.807Z,97026.22
2023-05-14T12:45:05.542Z,97021.81
2023-05-14T12:49:08.193Z,97022.63
2023-05-14T12:53:11.199Z,97017.38
2023-05-14T12:57:13.827Z,97007.53
2023-05-14T13:01:17.954Z,97005.03
2023-05-14T13:05:20.768Z,97008.63
2023-05-14T13:09:23.360Z,97012.75
2023-05-14T13:13:26.267Z,97004.25
2023-05-14T13:17:30.232Z,97000.19
2023-05-14T13:21:32.865Z,96999.06
2023-05-14T13:25:36.267Z,96989.22
2023-05-14T13:29:38.853Z,96987.88
2023-05-14T13:33:44.053Z,96991.97
2023-05-14T13:37:46.877Z,96995.78
2023-05-14T13:41:50.734Z,96993.03
2023-05-14T13:45:53.370Z,96985.47
2023-05-14T13:49:57.528Z,96986.25
2023-05-14T13:54:00.205Z,97017.63
2023-05-14T13:58:02.924Z,97030.84
2023-05-14T14:02:06.336Z,97037.50
2023-05-14T14:06:10.808Z,97036.78
2023-05-14T14:10:13.677Z,97053.72
2023-05-14T14:14:16.347Z,97068.47
2023-05-14T14:18:18.934Z,97070.28
2023-05-14T14:22:26.161Z,97073.97
2023-05-14T14:26:30.847Z,97082.25
2023-05-14T14:30:34.623Z,97085.53
2023-05-14T14:34:37.258Z,97082.00
2023-05-14T14:38:41.290Z,97071.16
2023-05-14T14:42:45.199Z,97058.63
2023-05-14T14:46:48.317Z,97063.09
2023-05-14T14:50:51.931Z,97056.88
2023-05-14T14:54:56.540Z,97063.00
2023-05-14T14:58:59.138Z,97071.97
2023-05-14T15:03:01.856Z,97063.81
2023-05-14T15:07:04.612Z,97064.28
2023-05-14T15:11:08.763Z,97062.28
2023-05-14T15:15:11.838Z,97063.00
2023-05-14T15:19:14.464Z,97056.25
2023-05-14T15:23:17.295Z,97054.72
2023-05-14T15:27:21.265Z,97050.44
2023-05-14T15:31:24.040Z,97047.91
2023-05-14T15:35:26.764Z,97060.22
2023-05-14T15:39:32.145Z,97062.22
2023-05-14T15:43:36.486Z,97064.50
2023-05-14T15:47:39.140Z,97060.31
2023-05-14T15:51:41.881Z,97062.56
2023-05-14T15:55:44.892Z,97051.16
2023-05-14T15:59:48.942Z,97042.53
2023-05-14T16:03:51.752Z,97045.97
2023-05-14T16:07:54.465Z,97034.63
2023-05-14T16:11:57.305Z,97046.28
2023-05-14T16:16:01.453Z,97037.16
2023-05-14T16:20:05.287Z,97031.91
2023-05-14T16:24:09.124Z,97024.59
2023-05-14T16:28:11.744Z,97031.91
2023-05-14T16:32:15.719Z,97030.34
2023-05-14T16:36:19.632Z,97011.91
2023-05-14T16:40:23.426Z,97021.00
2023-05-14T16:44:26.288Z,97018.41
2023-05-14T16:48:30.258Z,97014.25
2023-05-14T16:52:32.972Z,97015.25
2023-05-14T16:56:35.640Z,97016.81
2023-05-14T17:00:38.311Z,97018.81
2023-05-14T17:04:42.375Z,97011.69
2023-05-14T17:08:45.093Z,97011.91
2023-05-14T17:12:47.667Z,97006.16
2023-05-14T17:16:50.407Z,97001.75
2023-05-14T17:20:54.640Z,97000.13
2023-05-14T17:24:57.244Z,97005.22
2023-05-14T17:28:59.881Z,97009.59
2023-05-14T17:33:02.536Z,97009.69
2023-05-14T17:37:07.039Z,97014.97
2023-05-14T17:41:09.726Z,97022.66
2023-05-14T17:45:13.091Z,97008.38
2023-05-14T17:49:16.088Z,97017.84
2023-05-14T17:53:20.060Z,97014.06
2023-05-14T17:57:22.787Z,97007.97
2023-05-14T18:01:25.571Z,97012.75
2023-05-14T18:05:30.086Z,97006.41
2023-05-14T18:09:34.011Z,97014.25
2023-05-14T18:13:36.634Z,97006.16
2023-05-14T18:17:40.180Z,97008.81
2023-05-14T18:21:44.144Z,97000.91
2023-05-14T18:25:48.808Z,96997.94
2023-05-14T18:29:51.917Z,97002.28
2023-05-14T18:33:54.510Z,97002.47
2023-05-14T18:37:57.190Z,97001.03
2023-05-14T18:42:01.137Z,97000.44
2023-05-14T18:46:03.890Z,96999.63
2023-05-14T18:50:08.226Z,96995.75
2023-05-14T18:54:10.842Z,96988.00
2023-05-14T18:58:15.331Z,96996.63
2023-05-14T19:02:18.118Z,96988.69
2023-05-14T19:06:20.768Z,96988.38
2023-05-14T19:10:24.053Z,97001.16
2023-05-14T19:14:28.060Z,97004.97
2023-05-14T19:18:31.036Z,97008.03
2023-05-14T19:22:33.830Z,97009.38
2023-05-14T19:26:36.452Z,97000.88
2023-05-14T19:30:40.431Z,97012.78
2023-05-14T19:34:43.120Z,97015.22
2023-05-14T19:38:45.832Z,97018.16
2023-05-14T19:42:48.412Z,97009.56
2023-05-14T19:46:53.145Z,97015.09
2023-05-14T19:50:56.310Z,97011.09
2023-05-14T19:54:59.246Z,97017.91
2023-05-14T19:59:01.903Z,97007.06
2023-05-14T20:03:06.418Z,97006.94
2023-05-14T20:07:10.031Z,97012.47
2023-05-14T20:11:12.677Z,97013.19
2023-05-14T20:15:15.276Z,97011.13
2023-05-14T20:19:21.432Z,97003.59
2023-05-14T20:23:24.144Z,97015.75
2023-05-14T20:27:26.819Z,97006.06
2023-05-14T20:31:29.454Z,97003.59
2023-05-14T20:35:33.554Z,97002.31
2023-05-14T20:39:36.412Z,96996.56
2023-05-14T20:43:39.079Z,96991.50
2023-05-14T20:47:41.714Z,97000.28
2023-05-14T20:51:45.756Z,96995.19
2023-05-14T20:55:48.560Z,96998.97
2023-05-14T20:59:51.200Z,96998.97
2023-05-14T21:03:53.927Z,96987.66
2023-05-14T21:07:58.041Z,96975.22
2023-05-14T21:12:00.675Z,96979.41
2023-05-14T21:16:03.322Z,96981.28
2023-05-14T21:20:06.999Z,96988.44
2023-05-14T21:24:10.874Z,96995.00
2023-05-14T21:28:13.442Z,96980.88
2023-05-14T21:32:16.023Z,96989.25
2023-05-14T21:36:18.993Z,96992.56
2023-05-14T21:40:22.941Z,96983.56
2023-05-14T21:44:25.479Z,96985.06
2023-05-14T21:48:29.278Z,96987.66
2023-05-14T21:52:31.935Z,96986.53
2023-05-14T21:56:36.461Z,96975.22
2023-05-14T22:00:39.967Z,96978.03
2023-05-14T22:04:42.506Z,96984.16
2023-05-14T22:08:45.241Z,96973.75
2023-05-14T22:12:49.152Z,96975.06
2023-05-14T22:16:52.075Z,96969.31
2023-05-14T22:20:54.646Z,96970.63
2023-05-14T22:24:57.437Z,96966.50
2023-05-14T22:29:01.452Z,96971.44
2023-05-14T22:33:04.096Z,96967.53
2023-05-14T22:37:06.830Z,96966.50
2023-05-14T22:41:09.349Z,96957.31
2023-05-14T22:45:13.358Z,96958.50
2023-05-14T22:49:15.983Z,96954.78
2023-05-14T22:53:18.538Z,96953.19
2023-05-14T22:57:21.156Z,96946.44
2023-05-14T23:01:25.074Z,96944.25
2023-05-14T23:05:27.678Z,96936.06
2023-05-14T23:09:30.273Z,96930.75
2023-05-14T23:13:33.186Z,96930.97
2023-05-14T23:17:37.233Z,96924.97
2023-05-14T23:21:39.872Z,96924.56
2023-05-14T23:25:42.517Z,96918.13
2023-05-14T23:29:45.115Z,96913.84
2023-05-14T23:33:49.075Z,96906.84
2023-05-14T23:37:51.765Z,96909.78
2023-05-14T23:41:54.301Z,96900.47
2023-05-14T23:45:57.126Z,96895.06
2023-05-14T23:50:01.083Z,96899.47
2023-05-14T23:54:03.918Z,96897.00
2023-05-14T23:58:06.505Z,96888.53
